sensor_id;sensor_type;location;lat;lon;timestamp;P1;durP1;ratioP1;P2;durP2;ratioP2
8986;SDS011;4529;51.360;12.474;2023-03-01T00:04:30;11.67;;;6.87;;
8986;SDS011;4529;51.360;12.474;2023-03-01T00:09:35;10.70;;;7.00;;
8986;SDS011;4529;51.360;12.474;2023-03-01T00:14:38;11.57;;;6.83;;
8986;SDS011;4529;51.360;12.474;2023-03-01T00:19:42;10.43;;;6.83;;
8986;SDS011;4529;51.360;12.474;2023-03-01T00:24:45;8.93;;;6.27;;
8986;SDS011;4529;51.360;12.474;2023-03-01T00:29:48;14.90;;;6.43;;
8986;SDS011;4529;51.360;12.474;2023-03-01T00:34:52;10.67;;;6.50;;
8986;SDS011;4529;51.360;12.474;2023-03-01T00:39:58;8.97;;;6.27;;
8986;SDS011;4529;51.360;12.474;2023-03-01T00:45:02;11.73;;;6.13;;
8986;SDS011;4529;51.360;12.474;2023-03-01T00:50:06;11.17;;;6.70;;
8986;SDS011;4529;51.360;12.474;2023-03-01T00:55:09;9.83;;;5.50;;
8986;SDS011;4529;51.360;12.474;2023-03-01T01:00:12;13.60;;;6.53;;
8986;SDS011;4529;51.360;12.474;2023-03-01T01:05:17;10.57;;;6.30;;
8986;SDS011;4529;51.360;12.474;2023-03-01T01:10:25;10.47;;;6.67;;
8986;SDS011;4529;51.360;12.474;2023-03-01T01:15:29;12.00;;;6.07;;
8986;SDS011;4529;51.360;12.474;2023-03-01T01:20:32;10.80;;;6.53;;
8986;SDS011;4529;51.360;12.474;2023-03-01T01:25:36;12.47;;;6.63;;
8986;SDS011;4529;51.360;12.474;2023-03-01T01:30:39;11.80;;;6.50;;
8986;SDS011;4529;51.360;12.474;2023-03-01T01:35:44;10.53;;;6.53;;
8986;SDS011;4529;51.360;12.474;2023-03-01T01:40:46;11.67;;;6.50;;
8986;SDS011;4529;51.360;12.474;2023-03-01T01:45:50;11.20;;;6.27;;
8986;SDS011;4529;51.360;12.474;2023-03-01T01:50:55;8.83;;;5.63;;
8986;SDS011;4529;51.360;12.474;2023-03-01T01:56:00;11.87;;;5.93;;
8986;SDS011;4529;51.360;12.474;2023-03-01T02:01:04;10.03;;;5.70;;
8986;SDS011;4529;51.360;12.474;2023-03-01T02:06:10;11.17;;;5.90;;
8986;SDS011;4529;51.360;12.474;2023-03-01T02:11:16;15.77;;;6.73;;
8986;SDS011;4529;51.360;12.474;2023-03-01T02:16:20;12.07;;;8.10;;
8986;SDS011;4529;51.360;12.474;2023-03-01T02:26:45;13.77;;;8.17;;
8986;SDS011;4529;51.360;12.474;2023-03-01T02:31:49;11.80;;;7.83;;
8986;SDS011;4529;51.360;12.474;2023-03-01T02:36:59;12.93;;;7.77;;
8986;SDS011;4529;51.360;12.474;2023-03-01T02:42:04;11.63;;;7.50;;
8986;SDS011;4529;51.360;12.474;2023-03-01T02:47:07;13.30;;;8.47;;
8986;SDS011;4529;51.360;12.474;2023-03-01T02:52:21;14.20;;;8.17;;
8986;SDS011;4529;51.360;12.474;2023-03-01T02:57:35;13.43;;;8.03;;
8986;SDS011;4529;51.360;12.474;2023-03-01T03:02:38;12.27;;;7.80;;
8986;SDS011;4529;51.360;12.474;2023-03-01T03:07:42;12.17;;;7.80;;
8986;SDS011;4529;51.360;12.474;2023-03-01T03:12:48;13.13;;;8.03;;
8986;SDS011;4529;51.360;12.474;2023-03-01T03:17:54;12.53;;;8.00;;
8986;SDS011;4529;51.360;12.474;2023-03-01T03:22:57;13.07;;;7.87;;
8986;SDS011;4529;51.360;12.474;2023-03-01T03:28:00;12.07;;;7.80;;
8986;SDS011;4529;51.360;12.474;2023-03-01T03:33:04;14.57;;;7.13;;
8986;SDS011;4529;51.360;12.474;2023-03-01T03:38:08;10.30;;;5.87;;
8986;SDS011;4529;51.360;12.474;2023-03-01T03:43:15;9.50;;;5.87;;
8986;SDS011;4529;51.360;12.474;2023-03-01T03:48:23;10.13;;;5.73;;
8986;SDS011;4529;51.360;12.474;2023-03-01T03:53:27;10.30;;;6.33;;
8986;SDS011;4529;51.360;12.474;2023-03-01T03:58:30;10.53;;;6.23;;
8986;SDS011;4529;51.360;12.474;2023-03-01T04:03:34;15.20;;;6.53;;
8986;SDS011;4529;51.360;12.474;2023-03-01T04:08:37;10.27;;;6.30;;
8986;SDS011;4529;51.360;12.474;2023-03-01T04:13:41;7.67;;;5.37;;
8986;SDS011;4529;51.360;12.474;2023-03-01T04:18:45;11.70;;;5.87;;
8986;SDS011;4529;51.360;12.474;2023-03-01T04:23:50;10.63;;;5.90;;
8986;SDS011;4529;51.360;12.474;2023-03-01T04:28:53;8.97;;;5.47;;
8986;SDS011;4529;51.360;12.474;2023-03-01T04:33:57;9.53;;;5.77;;
8986;SDS011;4529;51.360;12.474;2023-03-01T04:39:00;11.40;;;5.77;;
8986;SDS011;4529;51.360;12.474;2023-03-01T04:44:04;9.60;;;6.00;;
8986;SDS011;4529;51.360;12.474;2023-03-01T04:49:07;12.00;;;6.10;;
8986;SDS011;4529;51.360;12.474;2023-03-01T04:54:10;10.63;;;6.73;;
8986;SDS011;4529;51.360;12.474;2023-03-01T04:59:14;11.90;;;6.07;;
8986;SDS011;4529;51.360;12.474;2023-03-01T05:04:17;12.07;;;6.87;;
8986;SDS011;4529;51.360;12.474;2023-03-01T05:09:21;11.80;;;6.97;;
8986;SDS011;4529;51.360;12.474;2023-03-01T05:14:24;11.30;;;6.80;;
8986;SDS011;4529;51.360;12.474;2023-03-01T05:19:28;11.30;;;6.40;;
8986;SDS011;4529;51.360;12.474;2023-03-01T05:24:34;11.43;;;6.57;;
8986;SDS011;4529;51.360;12.474;2023-03-01T05:29:35;9.57;;;6.53;;
8986;SDS011;4529;51.360;12.474;2023-03-01T05:34:38;10.17;;;6.70;;
8986;SDS011;4529;51.360;12.474;2023-03-01T05:39:42;12.83;;;7.50;;
8986;SDS011;4529;51.360;12.474;2023-03-01T05:44:45;12.90;;;7.00;;
8986;SDS011;4529;51.360;12.474;2023-03-01T05:49:49;10.93;;;6.83;;
8986;SDS011;4529;51.360;12.474;2023-03-01T05:54:52;14.13;;;7.17;;
8986;SDS011;4529;51.360;12.474;2023-03-01T05:59:55;11.87;;;7.20;;
8986;SDS011;4529;51.360;12.474;2023-03-01T06:04:59;12.07;;;7.27;;
8986;SDS011;4529;51.360;12.474;2023-03-01T06:10:04;10.73;;;6.77;;
8986;SDS011;4529;51.360;12.474;2023-03-01T06:15:08;12.63;;;7.10;;
8986;SDS011;4529;51.360;12.474;2023-03-01T06:20:13;12.43;;;7.37;;
8986;SDS011;4529;51.360;12.474;2023-03-01T06:25:17;12.40;;;7.37;;
8986;SDS011;4529;51.360;12.474;2023-03-01T06:30:20;12.00;;;7.03;;
8986;SDS011;4529;51.360;12.474;2023-03-01T06:35:22;11.80;;;7.63;;
8986;SDS011;4529;51.360;12.474;2023-03-01T06:40:31;13.23;;;7.63;;
8986;SDS011;4529;51.360;12.474;2023-03-01T06:45:34;16.73;;;8.67;;
8986;SDS011;4529;51.360;12.474;2023-03-01T06:50:38;13.40;;;7.33;;
8986;SDS011;4529;51.360;12.474;2023-03-01T06:55:41;13.13;;;7.47;;
8986;SDS011;4529;51.360;12.474;2023-03-01T07:00:44;15.70;;;7.97;;
8986;SDS011;4529;51.360;12.474;2023-03-01T07:05:48;1.43;;;1.40;;
8986;SDS011;4529;51.360;12.474;2023-03-01T07:10:58;2.17;;;2.00;;
8986;SDS011;4529;51.360;12.474;2023-03-01T07:16:01;1.10;;;1.07;;
8986;SDS011;4529;51.360;12.474;2023-03-01T07:21:06;1.60;;;1.50;;
8986;SDS011;4529;51.360;12.474;2023-03-01T07:26:11;1.77;;;1.67;;
8986;SDS011;4529;51.360;12.474;2023-03-01T07:31:14;2.63;;;2.43;;
8986;SDS011;4529;51.360;12.474;2023-03-01T07:36:24;16.97;;;8.70;;
8986;SDS011;4529;51.360;12.474;2023-03-01T07:41:27;15.10;;;9.23;;
8986;SDS011;4529;51.360;12.474;2023-03-01T07:46:31;15.53;;;9.60;;
8986;SDS011;4529;51.360;12.474;2023-03-01T07:51:35;14.67;;;9.57;;
8986;SDS011;4529;51.360;12.474;2023-03-01T07:56:39;14.93;;;9.30;;
8986;SDS011;4529;51.360;12.474;2023-03-01T08:01:43;18.03;;;10.10;;
8986;SDS011;4529;51.360;12.474;2023-03-01T08:06:47;19.67;;;10.33;;
8986;SDS011;4529;51.360;12.474;2023-03-01T08:11:51;20.80;;;10.10;;
8986;SDS011;4529;51.360;12.474;2023-03-01T08:16:54;16.97;;;9.73;;
8986;SDS011;4529;51.360;12.474;2023-03-01T08:21:58;16.77;;;9.97;;
8986;SDS011;4529;51.360;12.474;2023-03-01T08:27:01;17.23;;;10.30;;
8986;SDS011;4529;51.360;12.474;2023-03-01T08:32:04;16.90;;;10.27;;
8986;SDS011;4529;51.360;12.474;2023-03-01T08:37:12;17.03;;;10.33;;
8986;SDS011;4529;51.360;12.474;2023-03-01T08:42:15;18.07;;;10.00;;
8986;SDS011;4529;51.360;12.474;2023-03-01T08:47:19;19.43;;;10.57;;
8986;SDS011;4529;51.360;12.474;2023-03-01T08:52:22;18.07;;;10.57;;
8986;SDS011;4529;51.360;12.474;2023-03-01T08:57:26;18.80;;;11.33;;
8986;SDS011;4529;51.360;12.474;2023-03-01T09:02:30;18.50;;;11.10;;
8986;SDS011;4529;51.360;12.474;2023-03-01T09:07:34;18.53;;;10.40;;
8986;SDS011;4529;51.360;12.474;2023-03-01T09:12:39;16.10;;;10.37;;
8986;SDS011;4529;51.360;12.474;2023-03-01T09:17:43;15.20;;;10.30;;
8986;SDS011;4529;51.360;12.474;2023-03-01T09:22:46;19.23;;;11.20;;
8986;SDS011;4529;51.360;12.474;2023-03-01T09:27:53;21.23;;;11.17;;
8986;SDS011;4529;51.360;12.474;2023-03-01T09:32:56;20.10;;;10.67;;
8986;SDS011;4529;51.360;12.474;2023-03-01T09:38:05;20.97;;;10.73;;
8986;SDS011;4529;51.360;12.474;2023-03-01T09:43:13;16.83;;;10.33;;
8986;SDS011;4529;51.360;12.474;2023-03-01T09:48:21;16.43;;;10.00;;
8986;SDS011;4529;51.360;12.474;2023-03-01T09:53:22;18.77;;;10.40;;
8986;SDS011;4529;51.360;12.474;2023-03-01T09:58:29;21.00;;;10.13;;
8986;SDS011;4529;51.360;12.474;2023-03-01T10:03:42;18.50;;;10.30;;
8986;SDS011;4529;51.360;12.474;2023-03-01T10:08:56;18.87;;;11.10;;
8986;SDS011;4529;51.360;12.474;2023-03-01T10:19:32;15.47;;;10.10;;
8986;SDS011;4529;51.360;12.474;2023-03-01T10:24:46;18.70;;;10.53;;
8986;SDS011;4529;51.360;12.474;2023-03-01T10:29:56;16.37;;;10.13;;
8986;SDS011;4529;51.360;12.474;2023-03-01T10:35:17;17.10;;;9.07;;
8986;SDS011;4529;51.360;12.474;2023-03-01T10:40:22;14.33;;;9.30;;
8986;SDS011;4529;51.360;12.474;2023-03-01T10:50:32;20.07;;;9.60;;
8986;SDS011;4529;51.360;12.474;2023-03-01T10:55:36;17.73;;;10.50;;
8986;SDS011;4529;51.360;12.474;2023-03-01T11:05:50;19.80;;;11.70;;
8986;SDS011;4529;51.360;12.474;2023-03-01T11:11:16;21.43;;;12.27;;
8986;SDS011;4529;51.360;12.474;2023-03-01T11:16:37;19.53;;;11.97;;
8986;SDS011;4529;51.360;12.474;2023-03-01T11:21:49;18.10;;;11.93;;
8986;SDS011;4529;51.360;12.474;2023-03-01T11:26:54;17.87;;;11.27;;
8986;SDS011;4529;51.360;12.474;2023-03-01T11:31:59;20.53;;;11.90;;
8986;SDS011;4529;51.360;12.474;2023-03-01T11:37:07;20.00;;;11.60;;
8986;SDS011;4529;51.360;12.474;2023-03-01T11:42:11;21.33;;;12.27;;
8986;SDS011;4529;51.360;12.474;2023-03-01T12:20:35;15.10;;;10.20;;
8986;SDS011;4529;51.360;12.474;2023-03-01T12:25:48;14.93;;;9.97;;
8986;SDS011;4529;51.360;12.474;2023-03-01T12:30:52;14.27;;;8.97;;
8986;SDS011;4529;51.360;12.474;2023-03-01T12:41:39;12.87;;;9.47;;
8986;SDS011;4529;51.360;12.474;2023-03-01T12:46:59;15.20;;;10.23;;
8986;SDS011;4529;51.360;12.474;2023-03-01T12:57:40;15.80;;;9.50;;
8986;SDS011;4529;51.360;12.474;2023-03-01T13:02:50;16.00;;;9.73;;
8986;SDS011;4529;51.360;12.474;2023-03-01T13:07:53;14.43;;;9.93;;
8986;SDS011;4529;51.360;12.474;2023-03-01T13:33:50;15.23;;;8.93;;
8986;SDS011;4529;51.360;12.474;2023-03-01T13:38:57;16.97;;;9.33;;
8986;SDS011;4529;51.360;12.474;2023-03-01T13:44:02;13.60;;;9.17;;
8986;SDS011;4529;51.360;12.474;2023-03-01T13:49:09;14.53;;;9.10;;
8986;SDS011;4529;51.360;12.474;2023-03-01T13:54:09;14.83;;;8.83;;
8986;SDS011;4529;51.360;12.474;2023-03-01T13:59:13;15.53;;;9.00;;
8986;SDS011;4529;51.360;12.474;2023-03-01T14:04:26;12.47;;;7.63;;
8986;SDS011;4529;51.360;12.474;2023-03-01T14:09:34;13.03;;;7.70;;
8986;SDS011;4529;51.360;12.474;2023-03-01T14:14:42;12.10;;;7.27;;
8986;SDS011;4529;51.360;12.474;2023-03-01T14:19:47;10.30;;;6.90;;
8986;SDS011;4529;51.360;12.474;2023-03-01T14:24:51;10.93;;;6.83;;
8986;SDS011;4529;51.360;12.474;2023-03-01T14:29:58;10.63;;;6.63;;
8986;SDS011;4529;51.360;12.474;2023-03-01T14:35:18;9.73;;;6.63;;
8986;SDS011;4529;51.360;12.474;2023-03-01T14:40:19;11.33;;;6.93;;
8986;SDS011;4529;51.360;12.474;2023-03-01T14:45:12;10.57;;;6.67;;
8986;SDS011;4529;51.360;12.474;2023-03-01T14:50:26;11.53;;;6.33;;
8986;SDS011;4529;51.360;12.474;2023-03-01T14:55:35;8.00;;;5.87;;
8986;SDS011;4529;51.360;12.474;2023-03-01T15:01:17;8.50;;;6.40;;
8986;SDS011;4529;51.360;12.474;2023-03-01T15:05:55;9.20;;;6.20;;
8986;SDS011;4529;51.360;12.474;2023-03-01T15:11:00;9.90;;;6.70;;
8986;SDS011;4529;51.360;12.474;2023-03-01T15:16:12;9.20;;;5.97;;
8986;SDS011;4529;51.360;12.474;2023-03-01T15:21:33;11.17;;;6.60;;
8986;SDS011;4529;51.360;12.474;2023-03-01T15:26:37;8.60;;;5.87;;
8986;SDS011;4529;51.360;12.474;2023-03-01T15:31:42;8.40;;;5.60;;
8986;SDS011;4529;51.360;12.474;2023-03-01T15:36:46;10.20;;;5.60;;
8986;SDS011;4529;51.360;12.474;2023-03-01T15:41:49;8.37;;;6.00;;
8986;SDS011;4529;51.360;12.474;2023-03-01T15:46:53;9.77;;;6.37;;
8986;SDS011;4529;51.360;12.474;2023-03-01T15:51:57;8.60;;;5.90;;
8986;SDS011;4529;51.360;12.474;2023-03-01T15:57:00;9.70;;;5.90;;
8986;SDS011;4529;51.360;12.474;2023-03-01T16:02:08;8.07;;;5.80;;
8986;SDS011;4529;51.360;12.474;2023-03-01T16:07:14;9.23;;;5.80;;
8986;SDS011;4529;51.360;12.474;2023-03-01T16:12:18;9.20;;;5.83;;
8986;SDS011;4529;51.360;12.474;2023-03-01T16:17:22;8.73;;;5.70;;
8986;SDS011;4529;51.360;12.474;2023-03-01T16:22:27;10.20;;;6.03;;
8986;SDS011;4529;51.360;12.474;2023-03-01T16:27:30;9.77;;;5.97;;
8986;SDS011;4529;51.360;12.474;2023-03-01T16:32:41;7.97;;;5.93;;
8986;SDS011;4529;51.360;12.474;2023-03-01T16:37:44;10.50;;;6.03;;
8986;SDS011;4529;51.360;12.474;2023-03-01T16:42:48;10.00;;;6.10;;
8986;SDS011;4529;51.360;12.474;2023-03-01T16:47:52;9.70;;;6.27;;
8986;SDS011;4529;51.360;12.474;2023-03-01T16:52:56;8.80;;;6.37;;
8986;SDS011;4529;51.360;12.474;2023-03-01T16:58:01;12.83;;;6.63;;
8986;SDS011;4529;51.360;12.474;2023-03-01T17:03:04;9.33;;;6.30;;
8986;SDS011;4529;51.360;12.474;2023-03-01T17:08:08;10.27;;;6.50;;
8986;SDS011;4529;51.360;12.474;2023-03-01T17:13:12;11.53;;;6.20;;
8986;SDS011;4529;51.360;12.474;2023-03-01T17:18:16;10.80;;;6.23;;
8986;SDS011;4529;51.360;12.474;2023-03-01T17:23:21;9.53;;;6.40;;
8986;SDS011;4529;51.360;12.474;2023-03-01T17:28:25;11.37;;;6.80;;
8986;SDS011;4529;51.360;12.474;2023-03-01T17:33:28;11.90;;;7.00;;
8986;SDS011;4529;51.360;12.474;2023-03-01T17:38:31;9.37;;;5.93;;
8986;SDS011;4529;51.360;12.474;2023-03-01T17:43:34;10.50;;;5.40;;
8986;SDS011;4529;51.360;12.474;2023-03-01T17:48:38;9.17;;;5.60;;
8986;SDS011;4529;51.360;12.474;2023-03-01T17:53:42;9.20;;;5.77;;
8986;SDS011;4529;51.360;12.474;2023-03-01T17:58:46;9.53;;;6.20;;
8986;SDS011;4529;51.360;12.474;2023-03-01T18:03:52;8.80;;;5.70;;
8986;SDS011;4529;51.360;12.474;2023-03-01T18:08:54;8.83;;;5.87;;
8986;SDS011;4529;51.360;12.474;2023-03-01T18:13:58;11.03;;;6.30;;
8986;SDS011;4529;51.360;12.474;2023-03-01T18:19:02;8.03;;;5.50;;
8986;SDS011;4529;51.360;12.474;2023-03-01T18:24:06;8.03;;;5.80;;
8986;SDS011;4529;51.360;12.474;2023-03-01T18:29:10;8.93;;;6.13;;
8986;SDS011;4529;51.360;12.474;2023-03-01T18:34:14;13.93;;;7.03;;
8986;SDS011;4529;51.360;12.474;2023-03-01T18:39:18;10.33;;;6.90;;
8986;SDS011;4529;51.360;12.474;2023-03-01T18:44:22;11.77;;;6.60;;
8986;SDS011;4529;51.360;12.474;2023-03-01T18:49:25;8.90;;;6.27;;
8986;SDS011;4529;51.360;12.474;2023-03-01T18:54:29;10.63;;;6.60;;
8986;SDS011;4529;51.360;12.474;2023-03-01T18:59:33;11.77;;;6.77;;
8986;SDS011;4529;51.360;12.474;2023-03-01T19:04:37;10.33;;;6.30;;
8986;SDS011;4529;51.360;12.474;2023-03-01T19:09:41;11.13;;;6.87;;
8986;SDS011;4529;51.360;12.474;2023-03-01T19:14:45;9.33;;;6.63;;
8986;SDS011;4529;51.360;12.474;2023-03-01T19:19:49;10.50;;;6.73;;
8986;SDS011;4529;51.360;12.474;2023-03-01T19:24:53;9.87;;;7.00;;
8986;SDS011;4529;51.360;12.474;2023-03-01T19:29:57;10.57;;;6.90;;
8986;SDS011;4529;51.360;12.474;2023-03-01T19:35:01;8.63;;;6.47;;
8986;SDS011;4529;51.360;12.474;2023-03-01T19:40:14;10.43;;;7.10;;
8986;SDS011;4529;51.360;12.474;2023-03-01T19:45:18;10.77;;;6.43;;
8986;SDS011;4529;51.360;12.474;2023-03-01T19:50:22;11.03;;;6.80;;
8986;SDS011;4529;51.360;12.474;2023-03-01T19:55:26;8.00;;;5.67;;
8986;SDS011;4529;51.360;12.474;2023-03-01T20:00:29;8.73;;;5.30;;
8986;SDS011;4529;51.360;12.474;2023-03-01T20:05:33;7.47;;;5.40;;
8986;SDS011;4529;51.360;12.474;2023-03-01T20:10:36;7.70;;;5.53;;
8986;SDS011;4529;51.360;12.474;2023-03-01T20:15:40;10.00;;;5.00;;
8986;SDS011;4529;51.360;12.474;2023-03-01T20:20:47;9.83;;;5.60;;
8986;SDS011;4529;51.360;12.474;2023-03-01T20:25:48;8.10;;;5.27;;
8986;SDS011;4529;51.360;12.474;2023-03-01T20:30:52;11.17;;;6.13;;
8986;SDS011;4529;51.360;12.474;2023-03-01T20:35:56;8.83;;;5.37;;
8986;SDS011;4529;51.360;12.474;2023-03-01T20:46:06;8.93;;;5.47;;
8986;SDS011;4529;51.360;12.474;2023-03-01T20:51:09;8.10;;;4.97;;
8986;SDS011;4529;51.360;12.474;2023-03-01T20:56:13;7.23;;;4.87;;
8986;SDS011;4529;51.360;12.474;2023-03-01T21:01:17;7.90;;;4.80;;
8986;SDS011;4529;51.360;12.474;2023-03-01T21:06:28;7.30;;;4.43;;
8986;SDS011;4529;51.360;12.474;2023-03-01T21:11:32;5.77;;;4.23;;
8986;SDS011;4529;51.360;12.474;2023-03-01T21:16:36;6.97;;;4.97;;
8986;SDS011;4529;51.360;12.474;2023-03-01T21:21:40;11.10;;;5.00;;
8986;SDS011;4529;51.360;12.474;2023-03-01T21:26:44;6.60;;;4.40;;
8986;SDS011;4529;51.360;12.474;2023-03-01T21:31:48;7.87;;;4.60;;
8986;SDS011;4529;51.360;12.474;2023-03-01T21:36:52;7.43;;;4.70;;
8986;SDS011;4529;51.360;12.474;2023-03-01T21:41:57;5.87;;;4.30;;
8986;SDS011;4529;51.360;12.474;2023-03-01T21:47:00;6.07;;;4.43;;
8986;SDS011;4529;51.360;12.474;2023-03-01T21:52:04;12.87;;;5.23;;
8986;SDS011;4529;51.360;12.474;2023-03-01T21:57:08;7.57;;;4.87;;
8986;SDS011;4529;51.360;12.474;2023-03-01T22:02:12;8.33;;;5.27;;
8986;SDS011;4529;51.360;12.474;2023-03-01T22:07:29;8.07;;;5.23;;
8986;SDS011;4529;51.360;12.474;2023-03-01T22:12:32;11.73;;;5.23;;
8986;SDS011;4529;51.360;12.474;2023-03-01T22:17:36;8.83;;;5.20;;
8986;SDS011;4529;51.360;12.474;2023-03-01T22:22:40;8.90;;;5.50;;
8986;SDS011;4529;51.360;12.474;2023-03-01T22:27:44;7.67;;;5.50;;
8986;SDS011;4529;51.360;12.474;2023-03-01T22:32:48;9.73;;;5.23;;
8986;SDS011;4529;51.360;12.474;2023-03-01T22:37:52;7.57;;;5.33;;
8986;SDS011;4529;51.360;12.474;2023-03-01T22:42:55;8.73;;;5.53;;
8986;SDS011;4529;51.360;12.474;2023-03-01T22:48:00;8.20;;;5.30;;
8986;SDS011;4529;51.360;12.474;2023-03-01T22:53:04;8.00;;;5.23;;
8986;SDS011;4529;51.360;12.474;2023-03-01T22:58:08;9.03;;;5.47;;
8986;SDS011;4529;51.360;12.474;2023-03-01T23:03:11;10.30;;;5.80;;
8986;SDS011;4529;51.360;12.474;2023-03-01T23:08:15;10.33;;;5.57;;
8986;SDS011;4529;51.360;12.474;2023-03-01T23:13:18;8.97;;;5.00;;
8986;SDS011;4529;51.360;12.474;2023-03-01T23:18:22;9.17;;;5.80;;
8986;SDS011;4529;51.360;12.474;2023-03-01T23:23:26;7.93;;;5.60;;
8986;SDS011;4529;51.360;12.474;2023-03-01T23:28:31;11.57;;;5.70;;
8986;SDS011;4529;51.360;12.474;2023-03-01T23:33:35;8.50;;;5.43;;
8986;SDS011;4529;51.360;12.474;2023-03-01T23:44:03;9.33;;;5.57;;
8986;SDS011;4529;51.360;12.474;2023-03-01T23:49:07;11.17;;;6.07;;
8986;SDS011;4529;51.360;12.474;2023-03-01T23:54:10;9.97;;;5.37;;
8986;SDS011;4529;51.360;12.474;2023-03-01T23:59:15;10.70;;;5.63;;
